Terminal Aerodrome Forecast
Issued by NWS

Home | Current Version | Previous Version | Text Only | Print | Product List | Glossary Off
Versions: 1 2 3 4 5 6 7 8 9 10 11 12 13

000
FTUS43 KUNR 252206 AAA
TAFGCC
TAF AMD
KGCC 252206Z 2522/2618 31015KT P6SM BKN040
      TEMPO 2522/2601 -TSRA BKN040CB
     FM260200 24005KT P6SM SCT100=

USA.gov is the U.S. government's official web portal to all federal, state and local government web resources and services.